createdAt,value
2019-03-12T00:00:47.452Z,1980.23
2019-03-12T00:01:47.468Z,1986.56
2019-03-12T00:02:47.467Z,1992.72
2019-03-12T00:03:47.478Z,1985.87
2019-03-12T00:04:47.455Z,1988.20
2019-03-12T00:05:47.444Z,1984.83
2019-03-12T00:06:47.455Z,2003.34
2019-03-12T00:07:47.447Z,1980.77
2019-03-12T00:08:47.465Z,1985.87
2019-03-12T00:09:47.418Z,1986.92
2019-03-12T00:10:47.477Z,1990.00
2019-03-12T00:11:47.462Z,1997.91
2019-03-12T00:12:47.448Z,1983.65
2019-03-12T00:13:47.485Z,1991.13
2019-03-12T00:14:47.465Z,1994.22
2019-03-12T00:15:47.435Z,2005.35
2019-03-12T00:16:47.495Z,1996.46
2019-03-12T00:17:47.457Z,1981.57
2019-03-12T00:18:47.460Z,2005.90
2019-03-12T00:19:47.458Z,1994.72
2019-03-12T00:20:47.483Z,2005.40
2019-03-12T00:21:47.458Z,2001.65
2019-03-12T00:22:47.481Z,1992.13
2019-03-12T00:23:47.451Z,1991.09
2019-03-12T00:24:47.484Z,1997.26
2019-03-12T00:25:47.456Z,2001.65
2019-03-12T00:26:47.471Z,1999.10
2019-03-12T00:27:47.487Z,2014.33
2019-03-12T00:28:47.485Z,2004.30
2019-03-12T00:29:47.455Z,2005.90
2019-03-12T00:30:47.478Z,2005.30
2019-03-12T00:31:47.472Z,2010.71
2019-03-12T00:32:47.475Z,1994.27
2019-03-12T00:33:47.490Z,2010.76
2019-03-12T00:34:47.488Z,2021.28
2019-03-12T00:35:47.461Z,2004.30
2019-03-12T00:36:47.510Z,2012.17
2019-03-12T00:37:47.473Z,2007.35
2019-03-12T00:38:47.472Z,2005.16
2019-03-12T00:39:47.481Z,2005.80
2019-03-12T00:40:47.494Z,1997.71
2019-03-12T00:41:47.500Z,2002.46
2019-03-12T00:42:47.513Z,2009.56
2019-03-12T00:43:47.506Z,2022.75
2019-03-12T00:44:47.496Z,1996.67
2019-03-12T00:45:47.494Z,2010.87
2019-03-12T00:46:47.493Z,2006.21
2019-03-12T00:47:47.530Z,2004.51
2019-03-12T00:48:47.495Z,2020.12
2019-03-12T00:49:47.505Z,2008.36
2019-03-12T00:50:47.452Z,2021.59
2019-03-12T00:51:47.532Z,2011.42
2019-03-12T00:52:47.515Z,2009.41
2019-03-12T00:53:47.526Z,2024.26
2019-03-12T00:54:47.494Z,2003.86
2019-03-12T00:55:47.490Z,2007.71
2019-03-12T00:56:47.508Z,2014.09
2019-03-12T00:57:47.496Z,2024.26
2019-03-12T00:58:47.506Z,2031.15
2019-03-12T00:59:47.505Z,2004.01
2019-03-12T01:00:47.524Z,2022.55
2019-03-12T01:01:47.534Z,2018.32
2019-03-12T01:02:47.504Z,2009.77
2019-03-12T01:03:47.501Z,2023.76
2019-03-12T01:04:47.518Z,2031.30
2019-03-12T01:05:47.515Z,2032.82
2019-03-12T01:06:47.576Z,2011.73
2019-03-12T01:07:47.533Z,2014.09
2019-03-12T01:08:47.527Z,2010.13
2019-03-12T01:09:47.532Z,2012.93
2019-03-12T01:10:47.529Z,2021.39
2019-03-12T01:11:47.554Z,2014.54
2019-03-12T01:12:47.519Z,2022.05
2019-03-12T01:13:47.535Z,2009.12
2019-03-12T01:14:47.493Z,2019.78
2019-03-12T01:15:47.523Z,2028.37
2019-03-12T01:16:47.559Z,2003.12
2019-03-12T01:17:47.540Z,2035.37
2019-03-12T01:18:47.519Z,2029.79
2019-03-12T01:19:47.548Z,2020.74
2019-03-12T01:20:47.521Z,2008.43
2019-03-12T01:21:47.562Z,2001.42
2019-03-12T01:22:47.557Z,2017.92
2019-03-12T01:23:47.540Z,2024.43
2019-03-12T01:24:47.555Z,2023.32
2019-03-12T01:25:47.555Z,2034.01
2019-03-12T01:26:47.589Z,2028.22
2019-03-12T01:27:47.531Z,2022.91
2019-03-12T01:28:47.548Z,2019.59
2019-03-12T01:29:47.586Z,2022.16
2019-03-12T01:30:47.583Z,2027.62
2019-03-12T01:31:47.584Z,2040.05
2019-03-12T01:32:47.544Z,2020.55
2019-03-12T01:33:47.558Z,2032.23
2019-03-12T01:34:47.561Z,2024.28
2019-03-12T01:35:47.536Z,2043.02
2019-03-12T01:36:47.610Z,2024.14
2019-03-12T01:37:47.554Z,2024.69
2019-03-12T01:38:47.593Z,2028.43
2019-03-12T01:39:47.621Z,2011.30
2019-03-12T01:40:47.564Z,2033.86
2019-03-12T01:41:47.565Z,2023.63
2019-03-12T01:42:47.566Z,2040.78
2019-03-12T01:43:47.555Z,2022.42
2019-03-12T01:44:47.572Z,2020.35
2019-03-12T01:45:47.608Z,2017.73
2019-03-12T01:46:47.581Z,2041.29
2019-03-12T01:47:47.586Z,2036.96
2019-03-12T01:48:47.552Z,2027.27
2019-03-12T01:49:47.575Z,2047.16
2019-03-12T01:50:47.553Z,2005.24
2019-03-12T01:51:47.563Z,2029.45
2019-03-12T01:52:47.594Z,2021.27
2019-03-12T01:53:47.565Z,2012.11
2019-03-12T01:54:47.616Z,2024.64
2019-03-12T01:55:47.594Z,2018.59
2019-03-12T01:56:47.563Z,2028.24
2019-03-12T01:57:47.627Z,2026.06
2019-03-12T01:58:47.564Z,2031.48
2019-03-12T01:59:47.612Z,2027.58
2019-03-12T02:00:47.586Z,2043.84
2019-03-12T02:01:47.618Z,2029.20
2019-03-12T02:02:47.587Z,2038.39
2019-03-12T02:03:47.594Z,2030.83
2019-03-12T02:04:47.574Z,2045.52
2019-03-12T02:05:47.620Z,2017.39
2019-03-12T02:06:47.611Z,2031.38
2019-03-12T02:07:47.617Z,2053.61
2019-03-12T02:08:47.595Z,2016.74
2019-03-12T02:09:47.592Z,2031.89
2019-03-12T02:10:47.567Z,2038.39
2019-03-12T02:11:47.627Z,2028.19
2019-03-12T02:12:47.625Z,2020.11
2019-03-12T02:13:47.586Z,2047.11
2019-03-12T02:14:47.610Z,2024.25
2019-03-12T02:15:47.595Z,2023.75
2019-03-12T02:16:47.629Z,2043.69
2019-03-12T02:17:47.621Z,2037.18
2019-03-12T02:18:47.598Z,2033.92
2019-03-12T02:19:47.609Z,2039.27
2019-03-12T02:20:47.607Z,2051.82
2019-03-12T02:21:47.599Z,2039.87
2019-03-12T02:22:47.663Z,2036.11
2019-03-12T02:23:47.608Z,2025.21
2019-03-12T02:24:52.688Z,2040.99
2019-03-12T02:25:47.637Z,2039.87
2019-03-12T02:26:47.632Z,2040.89
2019-03-12T02:27:47.645Z,2020.42
2019-03-12T02:28:47.590Z,2047.94
2019-03-12T02:29:47.636Z,2023.09
2019-03-12T02:30:47.647Z,2040.33
2019-03-12T02:31:47.664Z,2045.74
2019-03-12T02:32:47.652Z,2041.96
2019-03-12T02:33:47.626Z,2039.27
2019-03-12T02:34:47.649Z,2036.98
2019-03-12T02:35:47.641Z,2019.21
2019-03-12T02:36:47.633Z,2013.42
2019-03-12T02:37:47.616Z,2043.45
2019-03-12T02:38:47.629Z,2032.01
2019-03-12T02:39:47.692Z,2053.42
2019-03-12T02:40:47.653Z,2043.45
2019-03-12T02:41:47.633Z,2031.04
2019-03-12T02:42:47.652Z,2029.73
2019-03-12T02:43:47.657Z,2042.94
2019-03-12T02:44:47.643Z,2041.82
2019-03-12T02:45:47.646Z,2034.14
2019-03-12T02:46:47.637Z,2038.05
2019-03-12T02:47:47.639Z,2035.67
2019-03-12T02:48:47.655Z,2022.75
2019-03-12T02:49:47.631Z,2046.62
2019-03-12T02:50:47.681Z,2053.27
2019-03-12T02:51:47.672Z,2024.46
2019-03-12T02:52:47.654Z,2053.12
2019-03-12T02:53:47.666Z,2024.92
2019-03-12T02:54:47.618Z,2026.49
2019-03-12T02:55:47.648Z,2052.50
2019-03-12T02:56:47.638Z,2025.43
2019-03-12T02:57:47.653Z,2054.24
2019-03-12T02:58:47.704Z,2055.22
2019-03-12T02:59:47.652Z,2031.25
2019-03-12T03:00:47.665Z,2056.30
2019-03-12T03:01:47.699Z,2030.70
2019-03-12T03:02:47.705Z,2061.08
2019-03-12T03:03:47.720Z,2038.36
2019-03-12T03:04:47.665Z,2039.43
2019-03-12T03:05:47.672Z,2044.88
2019-03-12T03:06:47.719Z,2059.59
2019-03-12T03:07:47.672Z,2034.50
2019-03-12T03:08:47.697Z,2050.72
2019-03-12T03:09:47.673Z,2033.94
2019-03-12T03:10:47.824Z,2060.57
2019-03-12T03:11:50.918Z,2065.46
2019-03-12T03:12:47.840Z,2038.82
2019-03-12T03:13:47.713Z,2066.03
2019-03-12T03:14:47.703Z,2055.07
2019-03-12T03:15:47.689Z,2030.60
2019-03-12T03:16:47.700Z,2064.28
2019-03-12T03:17:47.703Z,2039.89
2019-03-12T03:18:47.706Z,2031.16
2019-03-12T03:19:47.690Z,2046.93
2019-03-12T03:20:47.680Z,2057.18
2019-03-12T03:21:47.679Z,2035.47
2019-03-12T03:22:47.705Z,2057.18
2019-03-12T03:23:47.714Z,2034.91
2019-03-12T03:24:47.669Z,2037.51
2019-03-12T03:25:47.669Z,2046.27
2019-03-12T03:26:47.770Z,2031.56
2019-03-12T03:27:47.721Z,2053.23
2019-03-12T03:28:47.716Z,2027.26
2019-03-12T03:29:47.697Z,2024.02
2019-03-12T03:30:47.729Z,2057.60
2019-03-12T03:31:47.707Z,2045.20
2019-03-12T03:32:47.715Z,2034.25
2019-03-12T03:33:47.718Z,2027.82
2019-03-12T03:34:47.731Z,2032.12
2019-03-12T03:35:47.717Z,2050.52
2019-03-12T03:36:47.719Z,2041.42
2019-03-12T03:37:47.742Z,2037.41
2019-03-12T03:38:47.783Z,2035.78
2019-03-12T03:39:47.711Z,2033.60
2019-03-12T03:40:47.720Z,2042.81
2019-03-12T03:41:47.705Z,2027.67
2019-03-12T03:42:47.723Z,2027.06
2019-03-12T03:43:47.747Z,2040.11
2019-03-12T03:44:47.727Z,2024.99
2019-03-12T03:45:47.736Z,2047.15
2019-03-12T03:46:47.701Z,2024.48
2019-03-12T03:47:47.757Z,2042.25
2019-03-12T03:48:47.746Z,2043.22
2019-03-12T03:49:47.735Z,2035.13
2019-03-12T03:50:47.762Z,2028.54
2019-03-12T03:51:47.736Z,2041.08
2019-03-12T03:52:47.751Z,2041.08
2019-03-12T03:53:47.707Z,2036.65
2019-03-12T03:54:47.743Z,2019.95
2019-03-12T03:55:47.738Z,2047.56
2019-03-12T03:56:47.751Z,2030.76
2019-03-12T03:57:47.770Z,2016.27
2019-03-12T03:58:47.723Z,2024.14
2019-03-12T03:59:47.765Z,2025.35
2019-03-12T04:00:47.756Z,2019.44
2019-03-12T04:01:47.720Z,2023.73
2019-03-12T04:02:47.759Z,2018.79
2019-03-12T04:03:47.763Z,2013.46
2019-03-12T04:04:47.746Z,2039.40
2019-03-12T04:05:47.747Z,2012.91
2019-03-12T04:06:47.746Z,2015.57
2019-03-12T04:07:47.741Z,2027.37
2019-03-12T04:08:47.740Z,2023.08
2019-03-12T04:09:47.789Z,2023.58
2019-03-12T04:10:47.763Z,2010.75
2019-03-12T04:11:47.779Z,2038.69
2019-03-12T04:12:47.764Z,2030.01
2019-03-12T04:13:47.780Z,2040.22
2019-03-12T04:14:47.800Z,2018.19
2019-03-12T04:15:47.764Z,2013.96
2019-03-12T04:16:47.752Z,2033.71
2019-03-12T04:17:47.767Z,2028.85
2019-03-12T04:18:47.778Z,2025.10
2019-03-12T04:19:47.785Z,2008.64
2019-03-12T04:20:47.792Z,2031.08
2019-03-12T04:21:47.759Z,2013.86
2019-03-12T04:22:47.779Z,2037.53
2019-03-12T04:23:47.776Z,2015.47
2019-03-12T04:24:47.784Z,2017.13
2019-03-12T04:25:47.770Z,2030.06
2019-03-12T04:26:47.771Z,2026.22
2019-03-12T04:27:47.757Z,2031.68
2019-03-12T04:28:47.760Z,2036.46
2019-03-12T04:29:47.799Z,2027.28
2019-03-12T04:30:47.788Z,2007.99
2019-03-12T04:31:47.817Z,2011.25
2019-03-12T04:32:47.769Z,2030.01
2019-03-12T04:33:47.819Z,2021.27
2019-03-12T04:34:47.816Z,2031.99
2019-03-12T04:35:47.765Z,2031.43
2019-03-12T04:36:47.857Z,2021.92
2019-03-12T04:37:47.798Z,2019.80
2019-03-12T04:38:47.771Z,2010.55
2019-03-12T04:39:47.813Z,2033.62
2019-03-12T04:40:47.775Z,2013.77
2019-03-12T04:41:47.812Z,2003.33
2019-03-12T04:42:47.798Z,2020.71
2019-03-12T04:43:47.795Z,2027.28
2019-03-12T04:44:48.277Z,2026.77
2019-03-12T04:45:47.806Z,2014.27
2019-03-12T04:46:47.798Z,2021.87
2019-03-12T04:47:47.828Z,2007.59
2019-03-12T04:48:47.827Z,2020.91
2019-03-12T04:49:47.795Z,2022.98
2019-03-12T04:50:47.792Z,2025.20
2019-03-12T04:51:47.790Z,2015.57
2019-03-12T04:52:47.794Z,2020.40
2019-03-12T04:53:47.812Z,2012.50
2019-03-12T04:54:47.813Z,2006.63
2019-03-12T04:55:47.831Z,2006.08
2019-03-12T04:56:47.804Z,2026.61
2019-03-12T04:57:47.855Z,2020.19
2019-03-12T04:58:47.806Z,2006.27
2019-03-12T04:59:47.805Z,2023.37
2019-03-12T05:00:47.827Z,2026.20
2019-03-12T05:01:47.841Z,2025.14
2019-03-12T05:02:47.825Z,2017.72
2019-03-12T05:03:47.787Z,2008.62
2019-03-12T05:04:47.864Z,2013.99
2019-03-12T05:05:47.847Z,2028.57
2019-03-12T05:06:47.821Z,2018.37
2019-03-12T05:07:47.835Z,2030.29
2019-03-12T05:08:47.806Z,2035.57
2019-03-12T05:09:47.829Z,2028.67
2019-03-12T05:10:47.853Z,2032.42
2019-03-12T05:11:47.813Z,2013.78
2019-03-12T05:12:47.917Z,2035.76
2019-03-12T05:13:47.828Z,2034.60
2019-03-12T05:14:47.822Z,2031.04
2019-03-12T05:15:47.876Z,2020.17
2019-03-12T05:16:47.810Z,2033.88
2019-03-12T05:17:47.823Z,2011.36
2019-03-12T05:18:47.926Z,2027.80
2019-03-12T05:19:47.867Z,2007.10
2019-03-12T05:20:47.878Z,2037.13
2019-03-12T05:21:47.849Z,2007.05
2019-03-12T05:22:47.832Z,1999.51
2019-03-12T05:23:47.818Z,2009.76
2019-03-12T05:24:47.865Z,2007.05
2019-03-12T05:25:47.865Z,2018.35
2019-03-12T05:26:47.842Z,2000.39
2019-03-12T05:27:47.849Z,2012.46
2019-03-12T05:28:47.895Z,2019.41
2019-03-12T05:29:47.856Z,2005.19
2019-03-12T05:30:47.851Z,2016.74
2019-03-12T05:31:47.835Z,1999.84
2019-03-12T05:32:47.879Z,1996.01
2019-03-12T05:33:47.862Z,2021.17
2019-03-12T05:34:47.861Z,2019.55
2019-03-12T05:35:47.857Z,2000.80
2019-03-12T05:36:47.842Z,2008.35
2019-03-12T05:37:47.864Z,1983.44
2019-03-12T05:38:47.857Z,2010.36
2019-03-12T05:39:47.857Z,2020.61
2019-03-12T05:40:47.870Z,2006.60
2019-03-12T05:41:47.833Z,2010.50
2019-03-12T05:42:47.865Z,2000.65
2019-03-12T05:43:47.885Z,2006.10
2019-03-12T05:44:47.867Z,2008.90
2019-03-12T05:45:48.155Z,2015.68
2019-03-12T05:46:47.864Z,2017.19
2019-03-12T05:47:47.864Z,2022.13
2019-03-12T05:48:47.879Z,2012.46
2019-03-12T05:49:47.874Z,2008.20
2019-03-12T05:50:47.892Z,2009.30
2019-03-12T05:51:47.875Z,1993.28
2019-03-12T05:52:49.311Z,2020.52
2019-03-12T05:53:47.866Z,2003.94
2019-03-12T05:54:47.861Z,2011.87
2019-03-12T05:55:47.894Z,2014.62
2019-03-12T05:56:47.910Z,2008.90
2019-03-12T05:57:47.897Z,2001.75
2019-03-12T05:58:47.939Z,1992.97
2019-03-12T05:59:47.870Z,1994.42
2019-03-12T06:00:47.876Z,2002.99
2019-03-12T06:01:47.903Z,2019.05
2019-03-12T06:02:47.884Z,2001.94
2019-03-12T06:03:47.925Z,1999.20
2019-03-12T06:04:47.889Z,2023.94
2019-03-12T06:05:47.928Z,2017.94
2019-03-12T06:06:47.891Z,2019.55
2019-03-12T06:07:47.917Z,2021.67
2019-03-12T06:08:47.898Z,2016.98
2019-03-12T06:09:47.913Z,2022.88
2019-03-12T06:10:47.909Z,2008.44
2019-03-12T06:11:47.907Z,2021.92
2019-03-12T06:12:47.893Z,2006.53
2019-03-12T06:13:47.901Z,1998.84
2019-03-12T06:14:47.965Z,1999.09
2019-03-12T06:15:47.925Z,2016.12
2019-03-12T06:16:47.914Z,2022.67
2019-03-12T06:17:47.896Z,2010.08
2019-03-12T06:18:47.894Z,2019.54
2019-03-12T06:19:47.909Z,2009.93
2019-03-12T06:20:47.933Z,2027.71
2019-03-12T06:21:47.950Z,2025.13
2019-03-12T06:22:47.898Z,2024.72
2019-03-12T06:23:47.935Z,2010.92
2019-03-12T06:24:47.920Z,2020.94
2019-03-12T06:25:47.910Z,2021.74
2019-03-12T06:26:47.922Z,2023.30
2019-03-12T06:27:47.905Z,2012.22
2019-03-12T06:28:47.920Z,2031.09
2019-03-12T06:29:47.918Z,2030.53
2019-03-12T06:30:47.969Z,2042.42
2019-03-12T06:31:47.968Z,2025.77
2019-03-12T06:32:48.054Z,2025.77
2019-03-12T06:33:47.918Z,2043.03
2019-03-12T06:34:47.924Z,2041.65
2019-03-12T06:35:47.918Z,2027.22
2019-03-12T06:36:47.951Z,2043.79
2019-03-12T06:37:47.967Z,2047.72
2019-03-12T06:38:47.930Z,2042.87
2019-03-12T06:39:47.960Z,2025.55
2019-03-12T06:40:47.951Z,2027.82
2019-03-12T06:41:47.972Z,2031.07
2019-03-12T06:42:48.005Z,2038.07
2019-03-12T06:43:47.928Z,2030.51
2019-03-12T06:44:47.943Z,2049.09
2019-03-12T06:45:47.931Z,2035.38
2019-03-12T06:46:47.925Z,2037.51
2019-03-12T06:47:47.963Z,2050.01
2019-03-12T06:48:47.937Z,2034.82
2019-03-12T06:49:47.937Z,2030.46
2019-03-12T06:50:47.978Z,2049.45
2019-03-12T06:51:47.943Z,2041.84
2019-03-12T06:52:47.948Z,2064.75
2019-03-12T06:53:47.948Z,2057.09
2019-03-12T06:54:47.947Z,2052.63
2019-03-12T06:55:47.944Z,2062.91
2019-03-12T06:56:47.952Z,2074.43
2019-03-12T06:57:47.983Z,2073.86
2019-03-12T06:58:47.938Z,2080.25
2019-03-12T06:59:47.943Z,2104.71
2019-03-12T07:00:47.947Z,2094.49
2019-03-12T07:01:48.003Z,2107.35
2019-03-12T07:02:48.038Z,2113.95
2019-03-12T07:03:47.962Z,2106.52
2019-03-12T07:04:47.968Z,2105.89
2019-03-12T07:05:47.958Z,2101.12
2019-03-12T07:06:47.982Z,2127.70
2019-03-12T07:07:47.983Z,2109.96
2019-03-12T07:08:47.954Z,2108.75
2019-03-12T07:09:47.976Z,2101.92
2019-03-12T07:10:47.986Z,2116.47
2019-03-12T07:11:47.956Z,2133.91
2019-03-12T07:12:47.967Z,2134.93
2019-03-12T07:13:47.994Z,2118.44
2019-03-12T07:14:47.982Z,2136.97
2019-03-12T07:15:47.974Z,2115.91
2019-03-12T07:16:47.946Z,2112.10
2019-03-12T07:17:48.013Z,2133.45
2019-03-12T07:18:47.976Z,2131.74
2019-03-12T07:19:48.005Z,2119.73
2019-03-12T07:20:47.999Z,2129.93
2019-03-12T07:21:48.028Z,2137.30
2019-03-12T07:22:48.050Z,2132.50
2019-03-12T07:23:48.061Z,2127.54
2019-03-12T07:24:48.049Z,2146.31
2019-03-12T07:25:50.738Z,2144.49
2019-03-12T07:26:48.133Z,2129.57
2019-03-12T07:27:48.112Z,2131.18
2019-03-12T07:28:50.594Z,2136.84
2019-03-12T07:29:48.132Z,2138.98
2019-03-12T07:30:48.082Z,2153.71
2019-03-12T07:31:48.091Z,2141.72
2019-03-12T07:32:48.142Z,2162.36
2019-03-12T07:33:48.079Z,2137.17
2019-03-12T07:34:48.105Z,2146.18
2019-03-12T07:35:48.096Z,2159.93
2019-03-12T07:36:48.070Z,2159.23
2019-03-12T07:37:48.083Z,2153.01
2019-03-12T07:38:48.117Z,2145.05
2019-03-12T07:39:48.130Z,2164.48
2019-03-12T07:40:48.139Z,2174.27
2019-03-12T07:41:48.144Z,2163.73
2019-03-12T07:42:48.160Z,2160.16
2019-03-12T07:43:48.176Z,2171.72
2019-03-12T07:44:48.209Z,2180.83
2019-03-12T07:45:48.151Z,2179.69
2019-03-12T07:46:48.170Z,2174.94
2019-03-12T07:47:48.196Z,2191.70
2019-03-12T07:48:48.259Z,2173.20
2019-03-12T07:49:48.251Z,2184.29
2019-03-12T07:50:48.240Z,2181.77
2019-03-12T07:51:48.246Z,2171.35
2019-03-12T07:52:48.272Z,2192.86
2019-03-12T07:53:58.998Z,2193.20
2019-03-12T07:54:48.332Z,2193.80
2019-03-12T07:55:48.256Z,2186.77
2019-03-12T07:56:48.336Z,2179.66
2019-03-12T07:57:48.291Z,2184.81
2019-03-12T07:58:48.331Z,2179.39
2019-03-12T07:59:48.258Z,2175.35
2019-03-12T08:00:48.263Z,2182.89
2019-03-12T08:01:48.273Z,2178.30
2019-03-12T08:02:48.274Z,2175.35
2019-03-12T08:03:48.293Z,2171.87
2019-03-12T08:04:48.296Z,2195.14
2019-03-12T08:05:48.281Z,2159.92
2019-03-12T08:06:48.279Z,2156.46
2019-03-12T08:07:48.308Z,2186.66
2019-03-12T08:08:48.275Z,2174.91
2019-03-12T08:09:48.315Z,2147.99
2019-03-12T08:10:48.299Z,2162.79
2019-03-12T08:11:48.306Z,2158.19
2019-03-12T08:12:48.271Z,2166.31
2019-03-12T08:13:48.273Z,2166.63
2019-03-12T08:14:48.369Z,2159.37
2019-03-12T08:15:50.432Z,2164.19
2019-03-12T08:16:48.307Z,2135.55
2019-03-12T08:17:48.314Z,2130.05
2019-03-12T08:18:48.295Z,2139.13
2019-03-12T08:19:48.314Z,2125.04
2019-03-12T08:20:48.305Z,2141.97
2019-03-12T08:21:49.739Z,2150.95
2019-03-12T08:22:48.317Z,2127.23
2019-03-12T08:23:48.320Z,2141.48
2019-03-12T08:24:48.324Z,2118.68
2019-03-12T08:25:48.299Z,2138.49
2019-03-12T08:26:48.307Z,2128.98
2019-03-12T08:27:48.338Z,2117.56
2019-03-12T08:28:48.333Z,2156.33
2019-03-12T08:29:48.343Z,2139.18
2019-03-12T08:30:48.290Z,2130.68
2019-03-12T08:31:48.300Z,2107.47
2019-03-12T08:32:48.329Z,2112.64
2019-03-12T08:33:50.982Z,2110.95
2019-03-12T08:34:48.361Z,2115.44
2019-03-12T08:35:48.316Z,2140.36
2019-03-12T08:36:48.351Z,2139.33
2019-03-12T08:37:48.356Z,2120.05
2019-03-12T08:38:48.352Z,2117.24
2019-03-12T08:39:48.457Z,2108.36
2019-03-12T08:40:52.756Z,2115.54
2019-03-12T08:41:48.408Z,2124.66
2019-03-12T08:42:54.465Z,2113.32
2019-03-12T08:43:48.402Z,2102.78
2019-03-12T08:44:48.478Z,2107.83
2019-03-12T08:45:48.915Z,2108.94
2019-03-12T08:46:48.390Z,2094.96
2019-03-12T08:47:48.395Z,2079.47
2019-03-12T08:48:48.401Z,2093.29
2019-03-12T08:49:48.445Z,2121.84
2019-03-12T08:50:48.430Z,2120.63
2019-03-12T08:51:48.395Z,2126.95
2019-03-12T08:52:48.442Z,2094.96
2019-03-12T08:53:48.429Z,2110.78
2019-03-12T08:54:54.175Z,2105.57
2019-03-12T08:55:48.412Z,2084.41
2019-03-12T08:56:48.415Z,2113.53
2019-03-12T08:57:48.439Z,2102.93
2019-03-12T08:58:48.427Z,2087.75
2019-03-12T08:59:48.434Z,2095.54
2019-03-12T09:00:48.408Z,2104.46
2019-03-12T09:01:48.434Z,2111.83
2019-03-12T09:02:48.454Z,2123.01
2019-03-12T09:03:48.424Z,2106.25
2019-03-12T09:04:48.457Z,2121.42
2019-03-12T09:05:48.416Z,2095.21
2019-03-12T09:06:48.467Z,2081.85
2019-03-12T09:07:48.421Z,2083.42
2019-03-12T09:08:48.433Z,2089.10
2019-03-12T09:09:48.455Z,2106.93
2019-03-12T09:10:48.460Z,2072.52
2019-03-12T09:11:48.415Z,2074.84
2019-03-12T09:12:48.456Z,2077.44
2019-03-12T09:13:48.459Z,2094.06
2019-03-12T09:14:48.473Z,2077.59
2019-03-12T09:15:48.439Z,2097.99
2019-03-12T09:16:48.442Z,2079.77
2019-03-12T09:17:48.449Z,2096.42
2019-03-12T09:18:48.455Z,2096.99
2019-03-12T09:19:48.470Z,2071.06
2019-03-12T09:20:48.457Z,2077.59
2019-03-12T09:21:48.457Z,2065.58
2019-03-12T09:22:48.460Z,2068.42
2019-03-12T09:23:48.470Z,2073.28
2019-03-12T09:24:48.484Z,2076.60
2019-03-12T09:25:48.538Z,2108.92
2019-03-12T09:26:48.457Z,2074.47
2019-03-12T09:27:48.449Z,2065.68
2019-03-12T09:28:48.474Z,2089.40
2019-03-12T09:29:48.505Z,2084.97
2019-03-12T09:30:48.532Z,2090.07
2019-03-12T09:31:48.499Z,2080.12
2019-03-12T09:32:48.525Z,2076.23
2019-03-12T09:33:48.469Z,2089.55
2019-03-12T09:34:48.480Z,2066.92
2019-03-12T09:35:48.479Z,2081.79
2019-03-12T09:36:48.552Z,2109.17
2019-03-12T09:37:48.488Z,2100.13
2019-03-12T09:38:48.463Z,2066.92
2019-03-12T09:39:48.469Z,2079.03
2019-03-12T09:40:48.456Z,2075.14
2019-03-12T09:41:48.515Z,2069.09
2019-03-12T09:42:48.520Z,2093.99
2019-03-12T09:43:48.453Z,2073.48
2019-03-12T09:44:48.472Z,2083.97
2019-03-12T09:45:48.486Z,2078.88
2019-03-12T09:46:48.536Z,2084.45
2019-03-12T09:47:48.488Z,2086.73
2019-03-12T09:48:48.480Z,2074.47
2019-03-12T09:49:48.484Z,2073.95
2019-03-12T09:50:48.498Z,2081.11
2019-03-12T09:51:48.531Z,2061.97
2019-03-12T09:52:48.580Z,2079.35
2019-03-12T09:53:48.512Z,2081.11
2019-03-12T09:54:48.519Z,2062.95
2019-03-12T09:55:48.496Z,2083.77
2019-03-12T09:56:48.536Z,2089.97
2019-03-12T09:57:48.581Z,2050.32
2019-03-12T09:58:48.502Z,2055.29
2019-03-12T09:59:48.540Z,2066.15
2019-03-12T10:00:48.532Z,2056.27
2019-03-12T10:01:48.507Z,2071.06
2019-03-12T10:02:48.573Z,2060.12
2019-03-12T10:03:48.472Z,2052.94
2019-03-12T10:04:48.498Z,2088.20
2019-03-12T10:05:48.504Z,2077.12
2019-03-12T10:06:48.558Z,2079.67
2019-03-12T10:07:48.571Z,2046.80
2019-03-12T10:08:48.467Z,2062.24
2019-03-12T10:09:48.550Z,2068.12
2019-03-12T10:10:48.541Z,2056.22
2019-03-12T10:11:48.505Z,2064.25
2019-03-12T10:12:48.614Z,2083.20
2019-03-12T10:13:48.542Z,2057.25
2019-03-12T10:14:48.535Z,2071.58
2019-03-12T10:15:48.502Z,2069.77
2019-03-12T10:16:48.508Z,2075.98
2019-03-12T10:17:48.617Z,2070.44
2019-03-12T10:18:48.517Z,2053.35
2019-03-12T10:19:48.514Z,2073.60
2019-03-12T10:20:48.589Z,2058.38
2019-03-12T10:21:48.543Z,2066.05
2019-03-12T10:22:48.579Z,2081.49
2019-03-12T10:23:48.578Z,2058.94
2019-03-12T10:24:48.536Z,2064.25
2019-03-12T10:25:48.562Z,2080.76
2019-03-12T10:26:48.517Z,2081.43
2019-03-12T10:27:48.557Z,2041.95
2019-03-12T10:28:48.536Z,2075.16
2019-03-12T10:29:48.549Z,2059.77
2019-03-12T10:30:48.539Z,2067.04
2019-03-12T10:31:48.531Z,2073.55
2019-03-12T10:32:48.558Z,2076.35
2019-03-12T10:33:48.594Z,2077.44
2019-03-12T10:34:48.553Z,2058.59
2019-03-12T10:35:48.587Z,2055.31
2019-03-12T10:36:48.538Z,2071.90
2019-03-12T10:37:48.553Z,2062.97
2019-03-12T10:38:48.621Z,2067.50
2019-03-12T10:39:48.535Z,2052.49
2019-03-12T10:40:48.537Z,2074.96
2019-03-12T10:41:48.541Z,2053.10
2019-03-12T10:42:48.544Z,2064.47
2019-03-12T10:43:48.589Z,2076.67
2019-03-12T10:44:48.596Z,2065.60
2019-03-12T10:45:48.561Z,2056.29
2019-03-12T10:46:48.564Z,2070.56
2019-03-12T10:47:48.620Z,2075.38
2019-03-12T10:48:48.593Z,2069.84
2019-03-12T10:49:48.584Z,2061.64
2019-03-12T10:50:48.594Z,2049.63
2019-03-12T10:51:48.579Z,2056.70
2019-03-12T10:52:48.560Z,2074.24
2019-03-12T10:53:48.585Z,2067.57
2019-03-12T10:54:48.611Z,2074.24
2019-03-12T10:55:48.620Z,2086.30
2019-03-12T10:56:48.592Z,2073.62
2019-03-12T10:57:48.595Z,2050.09
2019-03-12T10:58:48.599Z,2054.55
2019-03-12T10:59:48.620Z,2063.19
2019-03-12T11:00:48.659Z,2057.22
2019-03-12T11:01:48.611Z,2060.46
2019-03-12T11:02:48.625Z,2047.94
2019-03-12T11:03:48.637Z,2081.87
2019-03-12T11:04:48.569Z,2075.13
2019-03-12T11:05:48.655Z,2085.78
2019-03-12T11:06:48.660Z,2067.57
2019-03-12T11:07:48.591Z,2041.26
2019-03-12T11:08:48.588Z,2044.16
2019-03-12T11:09:48.652Z,2074.04
2019-03-12T11:10:48.602Z,2068.14
2019-03-12T11:11:48.649Z,2054.20
2019-03-12T11:12:48.628Z,2062.89
2019-03-12T11:13:48.638Z,2071.66
2019-03-12T11:14:48.646Z,2054.20
2019-03-12T11:15:48.650Z,2053.78
2019-03-12T11:16:48.659Z,2046.72
2019-03-12T11:17:50.281Z,2062.89
2019-03-12T11:18:48.702Z,2041.67
2019-03-12T11:19:48.615Z,2041.11
2019-03-12T11:20:48.626Z,2070.58
2019-03-12T11:21:48.631Z,2051.89
2019-03-12T11:22:48.601Z,2058.46
2019-03-12T11:23:48.678Z,2051.99
2019-03-12T11:24:48.668Z,2074.46
2019-03-12T11:25:48.626Z,2056.35
2019-03-12T11:26:48.656Z,2065.57
2019-03-12T11:27:48.610Z,2053.69
2019-03-12T11:28:48.900Z,2063.04
2019-03-12T11:29:48.620Z,2067.89
2019-03-12T11:30:48.672Z,2072.80
2019-03-12T11:31:48.611Z,2059.64
2019-03-12T11:32:48.664Z,2061.29
2019-03-12T11:33:48.672Z,2065.82
2019-03-12T11:34:48.658Z,2052.56
2019-03-12T11:35:48.607Z,2062.42
2019-03-12T11:36:48.796Z,2068.41
2019-03-12T11:37:49.061Z,2048.72
2019-03-12T11:38:48.729Z,2055.84
2019-03-12T11:39:48.660Z,2065.25
2019-03-12T11:40:48.622Z,2053.12
2019-03-12T11:41:48.676Z,2055.28
2019-03-12T11:42:48.727Z,2047.69
2019-03-12T11:43:48.928Z,2068.41
2019-03-12T11:44:48.667Z,2051.58
2019-03-12T11:45:48.693Z,2069.49
2019-03-12T11:46:48.654Z,2056.40
2019-03-12T11:47:48.781Z,2048.77
2019-03-12T11:48:48.690Z,2060.31
2019-03-12T11:49:48.634Z,2067.27
2019-03-12T11:50:48.692Z,2070.06
2019-03-12T11:51:48.665Z,2074.46
2019-03-12T11:52:54.164Z,2073.32
2019-03-12T11:53:48.725Z,2046.57
2019-03-12T11:54:49.184Z,2054.10
2019-03-12T11:55:48.713Z,2046.06
2019-03-12T11:56:48.656Z,2076.59
2019-03-12T11:57:48.806Z,2065.67
2019-03-12T11:58:48.673Z,2070.06
2019-03-12T11:59:48.658Z,2072.70
2019-03-12T12:00:48.745Z,2057.38
2019-03-12T12:01:48.626Z,2058.05
2019-03-12T12:02:59.377Z,2054.10
2019-03-12T12:03:48.707Z,2055.18
2019-03-12T12:04:48.663Z,2065.57
2019-03-12T12:05:48.655Z,2070.53